Time;durP1;ratioP1;P1;durP2;ratioP2;P2;SDS_P1;SDS_P2;PMS_P1;PMS_P2;Temp;Humidity;BMP_temperature;BMP_pressure;BME280_temperature;BME280_humidity;BME280_pressure;Samples;Min_cycle;Max_cycle;Signal;HPM_P1;HPM_P2
2023/10/21 00:02:38;;;;;;;11.15;10.15;;;;;;;;;;12637278;23;20029;-68
2023/10/21 00:07:34;;;;;;;10.45;9.68;;;;;;;;;;12635938;23;20741;-69
2023/10/21 00:12:31;;;;;;;11.65;10.57;;;;;;;;;;12637947;23;20409;-69
2023/10/21 00:17:28;;;;;;;11.50;10.60;;;;;;;;;;12631707;23;20029;-69
2023/10/21 00:22:24;;;;;;;11.20;10.30;;;;;;;;;;12637016;23;20036;-68
2023/10/21 00:27:20;;;;;;;11.95;10.98;;;;;;;;;;12636851;23;20025;-68
2023/10/21 00:32:17;;;;;;;11.30;10.40;;;;;;;;;;12636987;23;20044;-68
2023/10/21 00:37:13;;;;;;;11.73;10.82;;;;;;;;;;12637685;23;20086;-68
2023/10/21 00:42:10;;;;;;;11.45;10.45;;;;;;;;;;12629253;23;20024;-69
2023/10/21 00:47:06;;;;;;;11.38;10.38;;;;;;;;;;12636688;23;20029;-69
2023/10/21 00:52:04;;;;;;;11.35;10.35;;;;;;;;;;12636708;23;20036;-68
2023/10/21 00:57:00;;;;;;;12.18;11.15;;;;;;;;;;12636534;23;20746;-69
2023/10/21 01:01:56;;;;;;;11.90;10.90;;;;;;;;;;12635364;23;20059;-68
2023/10/21 01:06:55;;;;;;;11.70;10.73;;;;;;;;;;12635572;23;20036;-68
2023/10/21 01:11:51;;;;;;;11.50;10.57;;;;;;;;;;12636531;23;20032;-68
2023/10/21 01:16:47;;;;;;;12.15;11.20;;;;;;;;;;12634836;23;20024;-68
2023/10/21 01:21:43;;;;;;;12.65;11.52;;;;;;;;;;12628621;23;20028;-67
2023/10/21 01:26:40;;;;;;;13.13;11.68;;;;;;;;;;12636648;23;20087;-67
2023/10/21 01:31:36;;;;;;;12.95;11.85;;;;;;;;;;12635898;23;20763;-70
2023/10/21 01:36:32;;;;;;;13.50;12.15;;;;;;;;;;12636407;23;20024;-67
2023/10/21 01:41:29;;;;;;;17.98;13.60;;;;;;;;;;12634300;23;20032;-71
2023/10/21 01:46:26;;;;;;;14.07;12.85;;;;;;;;;;12627854;23;20028;-68
2023/10/21 01:51:22;;;;;;;14.35;13.15;;;;;;;;;;12635185;23;20028;-70
2023/10/21 01:56:19;;;;;;;14.10;12.88;;;;;;;;;;12636106;23;20024;-67
2023/10/21 02:01:15;;;;;;;15.25;13.73;;;;;;;;;;12633786;23;20112;-67
2023/10/21 02:06:12;;;;;;;14.23;12.98;;;;;;;;;;12635724;23;20025;-67
2023/10/21 02:11:08;;;;;;;17.17;14.95;;;;;;;;;;12634995;23;20020;-68
2023/10/21 02:16:08;;;;;;;17.10;15.35;;;;;;;;;;12635358;23;20434;-68
2023/10/21 02:21:05;;;;;;;17.00;14.82;;;;;;;;;;12635695;23;20021;-67
2023/10/21 02:26:03;;;;;;;16.55;14.80;;;;;;;;;;12635705;23;20025;-68
2023/10/21 02:31:01;;;;;;;15.75;14.27;;;;;;;;;;12633746;23;20025;-68
2023/10/21 02:35:58;;;;;;;19.38;15.05;;;;;;;;;;12629137;23;20024;-67
2023/10/21 02:40:54;;;;;;;16.85;15.35;;;;;;;;;;12634385;23;20489;-68
2023/10/21 02:45:50;;;;;;;15.73;14.00;;;;;;;;;;12635487;23;20087;-68
2023/10/21 02:50:48;;;;;;;17.67;15.40;;;;;;;;;;12628763;23;20020;-67
2023/10/21 02:55:44;;;;;;;17.40;15.55;;;;;;;;;;12634912;23;20481;-67
2023/10/21 03:00:40;;;;;;;18.20;16.23;;;;;;;;;;12634409;23;20485;-67
2023/10/21 03:05:39;;;;;;;20.13;15.82;;;;;;;;;;12634607;23;20032;-68
2023/10/21 03:10:38;;;;;;;18.05;16.15;;;;;;;;;;12635093;23;20421;-69
2023/10/21 03:15:34;;;;;;;23.50;17.00;;;;;;;;;;12638420;23;20031;-69
2023/10/21 03:20:32;;;;;;;19.33;17.33;;;;;;;;;;12638835;23;20371;-67
2023/10/21 03:25:28;;;;;;;18.48;16.75;;;;;;;;;;12639651;23;20020;-68
2023/10/21 03:30:24;;;;;;;18.98;16.90;;;;;;;;;;12638984;23;20031;-69
2023/10/21 03:35:20;;;;;;;18.55;16.67;;;;;;;;;;12637447;23;20024;-69
2023/10/21 03:40:17;;;;;;;19.20;17.30;;;;;;;;;;12638695;23;20328;-69
2023/10/21 03:45:14;;;;;;;26.90;17.58;;;;;;;;;;12639222;23;20024;-69
2023/10/21 03:50:10;;;;;;;20.75;18.40;;;;;;;;;;12632749;23;20103;-69
2023/10/21 03:55:06;;;;;;;23.90;17.63;;;;;;;;;;12633575;23;20351;-67
2023/10/21 04:00:05;;;;;;;19.15;17.27;;;;;;;;;;12638974;23;20090;-68
2023/10/21 04:05:01;;;;;;;19.63;17.80;;;;;;;;;;12639386;23;20028;-68
2023/10/21 04:09:57;;;;;;;22.48;18.25;;;;;;;;;;12639251;23;20370;-68
2023/10/21 04:14:54;;;;;;;23.38;18.75;;;;;;;;;;12638331;23;20076;-69
2023/10/21 04:19:50;;;;;;;21.23;17.42;;;;;;;;;;12638208;23;20027;-68
2023/10/21 04:24:47;;;;;;;19.17;17.38;;;;;;;;;;12638098;23;20028;-67
2023/10/21 04:29:43;;;;;;;20.08;17.30;;;;;;;;;;12638356;23;20032;-69
2023/10/21 04:34:39;;;;;;;20.77;18.27;;;;;;;;;;12637699;23;20028;-69
2023/10/21 04:39:36;;;;;;;20.58;18.50;;;;;;;;;;12637634;23;20459;-68
2023/10/21 04:44:32;;;;;;;20.88;18.00;;;;;;;;;;12637882;23;20362;-69
2023/10/21 04:49:29;;;;;;;21.42;19.30;;;;;;;;;;12635750;23;20024;-66
2023/10/21 04:54:26;;;;;;;19.50;17.48;;;;;;;;;;12637669;23;20016;-67
2023/10/21 04:59:22;;;;;;;20.05;17.90;;;;;;;;;;12631287;23;20099;-68
2023/10/21 05:04:19;;;;;;;19.23;17.27;;;;;;;;;;12629532;23;20481;-67
2023/10/21 05:09:16;;;;;;;19.00;16.83;;;;;;;;;;12636574;23;20111;-68
2023/10/21 05:14:12;;;;;;;18.98;17.23;;;;;;;;;;12636841;23;20074;-68
2023/10/21 05:19:09;;;;;;;20.60;18.67;;;;;;;;;;12636183;23;20488;-68
2023/10/21 05:24:05;;;;;;;19.75;17.77;;;;;;;;;;12636616;23;20036;-67
2023/10/21 05:29:02;;;;;;;19.60;17.63;;;;;;;;;;12636154;23;20067;-68
2023/10/21 05:33:59;;;;;;;20.08;17.88;;;;;;;;;;12635821;23;20025;-67
2023/10/21 05:38:55;;;;;;;19.98;17.83;;;;;;;;;;12635879;23;20028;-68
2023/10/21 05:43:52;;;;;;;19.27;17.40;;;;;;;;;;12635435;23;20020;-67
2023/10/21 05:48:48;;;;;;;20.52;18.35;;;;;;;;;;12635989;23;20027;-68
2023/10/21 05:53:44;;;;;;;20.52;18.30;;;;;;;;;;12636446;23;20104;-68
2023/10/21 05:58:41;;;;;;;18.60;16.90;;;;;;;;;;12635815;23;20035;-68
2023/10/21 06:03:37;;;;;;;19.40;17.52;;;;;;;;;;12628743;23;20103;-68
2023/10/21 06:08:34;;;;;;;21.65;18.60;;;;;;;;;;12628788;23;20104;-67
2023/10/21 06:13:30;;;;;;;21.25;18.55;;;;;;;;;;12634147;23;20344;-67
2023/10/21 06:18:26;;;;;;;19.20;17.30;;;;;;;;;;12634812;23;20028;-67
2023/10/21 06:23:23;;;;;;;18.83;17.05;;;;;;;;;;12633677;23;20033;-67
2023/10/21 06:28:20;;;;;;;20.35;18.25;;;;;;;;;;12635327;23;20373;-67
2023/10/21 06:33:16;;;;;;;19.45;17.55;;;;;;;;;;12633360;23;20025;-70
2023/10/21 06:38:13;;;;;;;20.05;17.95;;;;;;;;;;12633036;23;20083;-69
2023/10/21 06:43:09;;;;;;;19.70;17.73;;;;;;;;;;12632281;23;20074;-70
2023/10/21 06:48:05;;;;;;;18.65;16.95;;;;;;;;;;12634029;23;20489;-69
2023/10/21 06:53:02;;;;;;;19.92;17.88;;;;;;;;;;12632075;23;20071;-71
2023/10/21 06:57:58;;;;;;;18.17;16.35;;;;;;;;;;12633401;23;20466;-70
2023/10/21 07:02:55;;;;;;;19.17;17.17;;;;;;;;;;12626415;23;20128;-71
2023/10/21 07:07:51;;;;;;;19.15;17.38;;;;;;;;;;12627164;23;20063;-70
2023/10/21 07:12:48;;;;;;;19.13;16.40;;;;;;;;;;12633831;23;20370;-71
2023/10/21 07:17:44;;;;;;;19.45;17.45;;;;;;;;;;12633489;23;20478;-70
2023/10/21 07:22:49;;;;;;;20.10;17.10;;;;;;;;;;12630966;23;20029;-70
2023/10/21 07:27:46;;;;;;;16.65;15.07;;;;;;;;;;12633833;23;20059;-70
2023/10/21 07:32:42;;;;;;;17.80;16.10;;;;;;;;;;12630689;23;20075;-70
2023/10/21 07:37:38;;;;;;;17.90;16.10;;;;;;;;;;12629300;23;20056;-70
2023/10/21 07:42:35;;;;;;;18.27;16.48;;;;;;;;;;12627174;23;20709;-70
2023/10/21 07:47:37;;;;;;;19.45;17.45;;;;;;;;;;12627635;23;20112;-69
2023/10/21 07:52:35;;;;;;;19.10;16.35;;;;;;;;;;12630411;23;20359;-70
2023/10/21 07:57:32;;;;;;;17.60;15.95;;;;;;;;;;12633314;23;20025;-71
2023/10/21 08:02:29;;;;;;;18.98;15.88;;;;;;;;;;12634364;23;20028;-72
2023/10/21 08:07:25;;;;;;;17.08;15.50;;;;;;;;;;12631819;23;20497;-69
2023/10/21 08:12:22;;;;;;;17.30;15.70;;;;;;;;;;12631990;23;20024;-70
2023/10/21 08:17:18;;;;;;;17.00;15.32;;;;;;;;;;12635946;23;20544;-71
2023/10/21 08:22:14;;;;;;;15.25;13.95;;;;;;;;;;12628209;23;20025;-71
2023/10/21 08:27:11;;;;;;;16.45;14.93;;;;;;;;;;12635355;23;20052;-71
2023/10/21 08:32:07;;;;;;;16.00;14.52;;;;;;;;;;12635696;23;20029;-71
2023/10/21 08:37:04;;;;;;;15.88;14.48;;;;;;;;;;12634630;23;20016;-70
2023/10/21 08:42:02;;;;;;;14.52;13.32;;;;;;;;;;12638461;23;20470;-70
2023/10/21 08:47:05;;;;;;;15.43;14.10;;;;;;;;;;12637893;23;20021;-71
2023/10/21 08:52:01;;;;;;;16.27;13.20;;;;;;;;;;12638328;23;20029;-70
2023/10/21 08:56:58;;;;;;;14.77;13.55;;;;;;;;;;12637712;23;20041;-71
2023/10/21 09:01:55;;;;;;;14.43;13.32;;;;;;;;;;12636656;23;20024;-70
2023/10/21 09:06:59;;;;;;;14.82;13.65;;;;;;;;;;12636536;23;20028;-71
2023/10/21 09:12:13;;;;;;;14.73;13.43;;;;;;;;;;12636283;23;20025;-71
2023/10/21 09:17:11;;;;;;;15.18;13.60;;;;;;;;;;12629177;23;20024;-70
2023/10/21 09:22:19;;;;;;;14.20;12.77;;;;;;;;;;12629125;23;20029;-71
2023/10/21 09:27:15;;;;;;;14.52;13.23;;;;;;;;;;12637141;23;20024;-71
2023/10/21 09:32:13;;;;;;;13.60;12.57;;;;;;;;;;12634385;23;20432;-71
2023/10/21 09:37:09;;;;;;;13.68;12.63;;;;;;;;;;12635501;23;20020;-71
2023/10/21 09:42:06;;;;;;;13.27;12.15;;;;;;;;;;12634134;23;20071;-70
2023/10/21 09:47:04;;;;;;;14.13;12.93;;;;;;;;;;12634601;23;20033;-70
2023/10/21 09:52:10;;;;;;;13.38;12.00;;;;;;;;;;12635383;23;20082;-71
2023/10/21 09:57:11;;;;;;;13.20;12.10;;;;;;;;;;12635516;23;20631;-71
2023/10/21 10:02:09;;;;;;;13.93;12.52;;;;;;;;;;12633157;23;20689;-71
2023/10/21 10:07:09;;;;;;;12.68;11.75;;;;;;;;;;12635410;23;20036;-71
2023/10/21 10:12:19;;;;;;;14.18;13.15;;;;;;;;;;12632761;23;20028;-69
2023/10/21 10:17:35;;;;;;;14.75;13.50;;;;;;;;;;12625135;23;20024;-69
2023/10/21 10:22:31;;;;;;;15.98;14.57;;;;;;;;;;12628348;23;20016;-69
2023/10/21 10:27:38;;;;;;;16.17;14.88;;;;;;;;;;12622259;23;20034;-70
2023/10/21 10:32:43;;;;;;;15.98;14.68;;;;;;;;;;12631527;23;20355;-70
2023/10/21 10:37:50;;;;;;;16.85;15.25;;;;;;;;;;12633822;23;20052;-71
2023/10/21 10:42:46;;;;;;;17.55;15.95;;;;;;;;;;12633567;23;20366;-69
2023/10/21 10:47:43;;;;;;;16.83;15.35;;;;;;;;;;12633619;23;20031;-70
2023/10/21 10:52:40;;;;;;;18.25;16.55;;;;;;;;;;12634860;23;20063;-69
2023/10/21 10:57:36;;;;;;;17.77;16.17;;;;;;;;;;12657402;23;20024;-70
2023/10/21 11:02:42;;;;;;;18.75;17.05;;;;;;;;;;12633320;23;20051;-71
2023/10/21 11:07:39;;;;;;;18.02;16.42;;;;;;;;;;12634800;23;20521;-69
2023/10/21 11:12:36;;;;;;;19.20;17.45;;;;;;;;;;12634046;23;20080;-70
2023/10/21 11:17:33;;;;;;;18.02;16.45;;;;;;;;;;12634129;23;20644;-70
2023/10/21 11:22:29;;;;;;;19.42;17.42;;;;;;;;;;12629519;23;20035;-70
2023/10/21 11:27:29;;;;;;;19.23;17.52;;;;;;;;;;12632687;23;20071;-70
2023/10/21 11:32:27;;;;;;;18.70;17.00;;;;;;;;;;12634851;23;20033;-71
2023/10/21 11:37:23;;;;;;;19.38;17.48;;;;;;;;;;12638418;23;20024;-69
2023/10/21 11:42:20;;;;;;;19.65;16.55;;;;;;;;;;12637447;23;20028;-70
2023/10/21 11:47:16;;;;;;;18.05;16.45;;;;;;;;;;12637626;23;20021;-70
2023/10/21 11:52:13;;;;;;;19.38;17.42;;;;;;;;;;12637003;23;20025;-70
2023/10/21 12:13:32;;;;;;;18.52;16.80;;;;;;;;;;12636848;23;20339;-72
2023/10/21 12:18:56;;;;;;;18.90;17.25;;;;;;;;;;12637735;23;20025;-72
2023/10/21 12:39:57;;;;;;;17.88;16.30;;;;;;;;;;12603293;23;20497;-71
2023/10/21 12:44:55;;;;;;;18.80;17.30;;;;;;;;;;12635070;23;20031;-71
2023/10/21 12:49:55;;;;;;;18.30;16.80;;;;;;;;;;12632893;23;20025;-70
2023/10/21 12:54:52;;;;;;;20.13;18.35;;;;;;;;;;12637412;23;20399;-70
2023/10/21 12:59:50;;;;;;;19.52;17.52;;;;;;;;;;12635960;23;20027;-72
2023/10/21 13:04:46;;;;;;;19.83;18.00;;;;;;;;;;12636572;23;20059;-71
2023/10/21 13:09:44;;;;;;;21.02;19.13;;;;;;;;;;12636663;23;20459;-72
2023/10/21 13:14:40;;;;;;;18.75;17.13;;;;;;;;;;12637107;23;20090;-71
2023/10/21 13:19:37;;;;;;;18.25;16.48;;;;;;;;;;12627466;23;20116;-72
2023/10/21 13:24:34;;;;;;;17.48;16.08;;;;;;;;;;12631191;23;20020;-72
2023/10/21 13:29:32;;;;;;;19.15;17.67;;;;;;;;;;12627612;23;20017;-71
2023/10/21 13:34:28;;;;;;;19.73;18.02;;;;;;;;;;12636398;23;20478;-71
2023/10/21 13:39:28;;;;;;;19.35;17.75;;;;;;;;;;12636360;23;20107;-71
2023/10/21 13:44:24;;;;;;;21.35;19.10;;;;;;;;;;12635795;23;20522;-71
2023/10/21 13:49:21;;;;;;;22.17;20.20;;;;;;;;;;12636089;23;20024;-71
2023/10/21 13:54:17;;;;;;;20.73;18.90;;;;;;;;;;12636596;23;20038;-71
2023/10/21 13:59:14;;;;;;;19.42;17.75;;;;;;;;;;12635520;23;20393;-71
2023/10/21 14:04:11;;;;;;;20.70;18.92;;;;;;;;;;12635625;23;20024;-71
2023/10/21 14:09:14;;;;;;;20.65;18.85;;;;;;;;;;12631930;23;20497;-71
2023/10/21 14:14:10;;;;;;;21.98;19.98;;;;;;;;;;12632606;23;20086;-72
2023/10/21 14:19:08;;;;;;;21.30;19.40;;;;;;;;;;12633005;23;20730;-72
2023/10/21 14:24:14;;;;;;;19.88;18.17;;;;;;;;;;12633552;22;20035;-72
2023/10/21 14:29:11;;;;;;;20.40;18.50;;;;;;;;;;12635230;23;20052;-72
2023/10/21 14:34:07;;;;;;;19.42;17.67;;;;;;;;;;12630011;23;20035;-72
2023/10/21 14:39:06;;;;;;;19.92;18.33;;;;;;;;;;12635457;23;20093;-72
2023/10/21 14:44:03;;;;;;;20.27;18.58;;;;;;;;;;12635404;23;20100;-72
2023/10/21 14:49:02;;;;;;;21.35;19.60;;;;;;;;;;12634501;23;20610;-72
2023/10/21 14:53:59;;;;;;;19.98;18.38;;;;;;;;;;12634757;23;20036;-72
2023/10/21 14:58:55;;;;;;;21.77;19.60;;;;;;;;;;12635350;23;20035;-72
2023/10/21 15:03:52;;;;;;;20.90;19.30;;;;;;;;;;12634092;23;20031;-72
2023/10/21 15:08:48;;;;;;;21.83;20.00;;;;;;;;;;12633619;23;20223;-71
2023/10/21 15:13:44;;;;;;;20.65;19.00;;;;;;;;;;12635207;23;20371;-72
2023/10/21 15:18:41;;;;;;;21.38;19.35;;;;;;;;;;12634705;23;20020;-72
2023/10/21 15:23:37;;;;;;;21.13;19.27;;;;;;;;;;12634187;23;20032;-72
2023/10/21 15:28:34;;;;;;;22.55;20.52;;;;;;;;;;12634987;23;20455;-73
2023/10/21 15:33:30;;;;;;;22.05;20.15;;;;;;;;;;12634447;23;20413;-72
2023/10/21 15:38:26;;;;;;;22.33;20.35;;;;;;;;;;12628937;23;20558;-72
2023/10/21 15:43:23;;;;;;;21.65;19.88;;;;;;;;;;12634481;23;20020;-71
2023/10/21 15:48:19;;;;;;;23.05;20.92;;;;;;;;;;12633944;23;20037;-71
2023/10/21 15:53:15;;;;;;;22.38;20.05;;;;;;;;;;12632964;23;20036;-70
2023/10/21 15:58:13;;;;;;;21.73;19.83;;;;;;;;;;12625044;23;20021;-70
2023/10/21 16:08:22;;;;;;;21.70;19.83;;;;;;;;;;12635614;22;20020;-72
2023/10/21 16:13:19;;;;;;;20.63;18.92;;;;;;;;;;12659982;23;20433;-71
2023/10/21 16:18:15;;;;;;;21.38;19.38;;;;;;;;;;12636193;23;20079;-70
2023/10/21 16:23:12;;;;;;;20.48;18.75;;;;;;;;;;12643146;23;20024;-71
2023/10/21 16:28:12;;;;;;;22.25;20.20;;;;;;;;;;12638411;23;20029;-71
2023/10/21 16:33:08;;;;;;;21.02;19.23;;;;;;;;;;12634452;23;20457;-71
2023/10/21 16:38:05;;;;;;;23.13;21.00;;;;;;;;;;12633430;23;20655;-70
2023/10/21 16:43:02;;;;;;;20.75;18.85;;;;;;;;;;12633483;23;20063;-71
2023/10/21 16:47:59;;;;;;;22.33;20.23;;;;;;;;;;12635102;23;20143;-71
2023/10/21 16:52:57;;;;;;;22.05;19.95;;;;;;;;;;12628122;23;20028;-70
2023/10/21 16:57:54;;;;;;;22.60;20.38;;;;;;;;;;12629862;23;20390;-71
2023/10/21 17:02:50;;;;;;;21.38;19.45;;;;;;;;;;12627782;23;20366;-72
2023/10/21 17:07:48;;;;;;;22.08;19.95;;;;;;;;;;12656868;23;20052;-72
2023/10/21 17:12:45;;;;;;;22.05;20.05;;;;;;;;;;12631161;23;20031;-71
2023/10/21 17:17:42;;;;;;;20.70;18.80;;;;;;;;;;12633439;23;20024;-71
2023/10/21 17:22:40;;;;;;;21.83;19.90;;;;;;;;;;12633406;23;20211;-71
2023/10/21 17:27:37;;;;;;;21.55;19.52;;;;;;;;;;12631778;23;20095;-72
2023/10/21 17:32:33;;;;;;;21.70;19.73;;;;;;;;;;12630100;23;20059;-72
2023/10/21 17:37:29;;;;;;;22.35;20.23;;;;;;;;;;12630466;23;20524;-70
2023/10/21 17:42:26;;;;;;;21.77;19.88;;;;;;;;;;12623703;23;20048;-72
2023/10/21 17:47:23;;;;;;;23.80;20.48;;;;;;;;;;12638971;23;20082;-71
2023/10/21 17:52:20;;;;;;;21.88;20.02;;;;;;;;;;12644529;23;20060;-71
2023/10/21 17:57:17;;;;;;;22.15;19.90;;;;;;;;;;12641888;23;20020;-71
2023/10/21 18:02:14;;;;;;;21.95;20.02;;;;;;;;;;12667623;23;20046;-72
2023/10/21 18:07:10;;;;;;;22.48;20.50;;;;;;;;;;12645624;23;20024;-72
2023/10/21 18:12:07;;;;;;;21.85;19.35;;;;;;;;;;12640508;23;20024;-73
2023/10/21 18:17:04;;;;;;;21.42;19.40;;;;;;;;;;12644483;23;20032;-72
2023/10/21 18:22:00;;;;;;;21.80;19.52;;;;;;;;;;12642680;23;20032;-72
2023/10/21 18:26:58;;;;;;;21.63;19.55;;;;;;;;;;12643308;23;20079;-72
2023/10/21 18:31:57;;;;;;;23.02;20.80;;;;;;;;;;12643000;23;20344;-73
2023/10/21 18:36:53;;;;;;;20.95;19.15;;;;;;;;;;12641123;23;20028;-72
2023/10/21 18:41:50;;;;;;;22.85;20.65;;;;;;;;;;12641787;23;20028;-72
2023/10/21 18:46:47;;;;;;;20.17;18.35;;;;;;;;;;12639556;23;20024;-72
2023/10/21 18:51:43;;;;;;;20.65;18.58;;;;;;;;;;12627594;23;20075;-72
2023/10/21 18:56:40;;;;;;;21.20;18.98;;;;;;;;;;12638736;23;20025;-72
2023/10/21 19:01:38;;;;;;;21.42;18.40;;;;;;;;;;12640457;23;20028;-72
2023/10/21 19:06:36;;;;;;;20.60;18.50;;;;;;;;;;12628284;23;20028;-72
2023/10/21 19:11:33;;;;;;;18.60;17.10;;;;;;;;;;12632244;23;20025;-72
2023/10/21 19:16:50;;;;;;;17.05;15.55;;;;;;;;;;12640100;22;20354;-72
2023/10/21 19:21:48;;;;;;;18.35;16.48;;;;;;;;;;12629893;23;20021;-72
2023/10/21 19:26:45;;;;;;;19.40;17.20;;;;;;;;;;12660926;22;20021;-71
2023/10/21 19:31:41;;;;;;;16.30;14.63;;;;;;;;;;12630635;23;20028;-72
2023/10/21 19:36:39;;;;;;;15.55;13.98;;;;;;;;;;12635791;23;20075;-71
2023/10/21 19:41:36;;;;;;;14.82;13.63;;;;;;;;;;12635464;23;20031;-72
2023/10/21 19:46:32;;;;;;;14.48;13.38;;;;;;;;;;12631881;23;20400;-72
2023/10/21 19:51:29;;;;;;;13.95;12.95;;;;;;;;;;12634691;23;20032;-72
2023/10/21 19:56:26;;;;;;;14.18;12.95;;;;;;;;;;12637432;23;20032;-71
2023/10/21 20:01:23;;;;;;;14.63;13.55;;;;;;;;;;12637926;23;20028;-72
2023/10/21 20:12:31;;;;;;;14.30;13.07;;;;;;;;;;12506188;23;20025;-72
2023/10/21 20:17:28;;;;;;;14.40;13.18;;;;;;;;;;12503467;23;20219;-73
2023/10/21 20:22:24;;;;;;;13.77;12.77;;;;;;;;;;12508143;23;20021;-71
2023/10/21 20:27:22;;;;;;;13.18;12.23;;;;;;;;;;12508615;23;20060;-72
2023/10/21 20:43:00;;;;;;;13.30;12.20;;;;;;;;;;12635997;23;20025;-72
2023/10/21 20:47:57;;;;;;;13.77;12.65;;;;;;;;;;12636437;23;20032;-71
2023/10/21 20:58:26;;;;;;;13.55;12.27;;;;;;;;;;12637380;22;20024;-70
2023/10/21 21:03:23;;;;;;;13.02;12.07;;;;;;;;;;12626976;23;20032;-70
2023/10/21 21:08:20;;;;;;;12.55;11.55;;;;;;;;;;12630865;23;20042;-70
2023/10/21 21:13:16;;;;;;;12.70;11.80;;;;;;;;;;12629906;23;20020;-73
2023/10/21 21:18:12;;;;;;;12.32;11.52;;;;;;;;;;12625143;23;20033;-73
2023/10/21 21:23:13;;;;;;;12.52;11.60;;;;;;;;;;12632101;23;20020;-69
2023/10/21 21:28:10;;;;;;;12.13;11.10;;;;;;;;;;12632535;23;20036;-69
2023/10/21 21:33:07;;;;;;;12.88;11.70;;;;;;;;;;12632153;23;20025;-68
2023/10/21 21:38:04;;;;;;;13.02;12.02;;;;;;;;;;12632155;23;20016;-69
2023/10/21 21:43:00;;;;;;;11.65;10.90;;;;;;;;;;12626084;23;20044;-69
2023/10/21 21:47:57;;;;;;;12.77;11.60;;;;;;;;;;12632482;23;20410;-68
2023/10/21 21:52:53;;;;;;;12.65;11.65;;;;;;;;;;12632303;23;20107;-68
2023/10/21 21:57:49;;;;;;;11.73;10.93;;;;;;;;;;12633223;23;20024;-68
2023/10/21 22:02:46;;;;;;;12.70;11.63;;;;;;;;;;12631930;23;20406;-68
2023/10/21 22:07:42;;;;;;;12.38;11.48;;;;;;;;;;12632120;23;20106;-68
2023/10/21 22:12:40;;;;;;;11.73;10.93;;;;;;;;;;12631704;23;20025;-69
2023/10/21 22:17:38;;;;;;;12.02;11.23;;;;;;;;;;12625750;23;20574;-69
2023/10/21 22:22:35;;;;;;;11.77;10.77;;;;;;;;;;12632016;23;20040;-68
2023/10/21 22:27:31;;;;;;;11.30;10.40;;;;;;;;;;12632352;23;20028;-68
2023/10/21 22:32:27;;;;;;;12.90;11.93;;;;;;;;;;12632913;23;20028;-68
2023/10/21 22:37:24;;;;;;;11.30;10.60;;;;;;;;;;12631881;23;20132;-68
2023/10/21 22:42:20;;;;;;;12.27;11.07;;;;;;;;;;12631202;23;20351;-69
2023/10/21 22:47:17;;;;;;;12.30;11.43;;;;;;;;;;12632102;23;20536;-68
2023/10/21 22:52:13;;;;;;;11.77;10.57;;;;;;;;;;12632723;23;20016;-69
2023/10/21 22:57:09;;;;;;;12.27;11.23;;;;;;;;;;12625522;23;20079;-69
2023/10/21 23:02:06;;;;;;;11.80;10.93;;;;;;;;;;12631617;23;20020;-68
2023/10/21 23:07:03;;;;;;;11.43;10.38;;;;;;;;;;12632600;23;20028;-68
2023/10/21 23:11:59;;;;;;;12.10;11.10;;;;;;;;;;12631626;23;20031;-69
2023/10/21 23:16:55;;;;;;;11.73;10.60;;;;;;;;;;12631808;23;20031;-67
2023/10/21 23:21:52;;;;;;;11.75;10.75;;;;;;;;;;12625939;23;20486;-68
2023/10/21 23:26:48;;;;;;;11.75;10.85;;;;;;;;;;12631037;23;20321;-68
2023/10/21 23:31:45;;;;;;;10.70;9.90;;;;;;;;;;12636315;23;20483;-67
2023/10/21 23:36:41;;;;;;;12.40;11.50;;;;;;;;;;12635818;23;20020;-69
2023/10/21 23:41:37;;;;;;;11.38;10.57;;;;;;;;;;12635556;23;20632;-69
2023/10/21 23:46:36;;;;;;;11.57;10.55;;;;;;;;;;12635699;23;20103;-68
2023/10/21 23:51:32;;;;;;;11.20;10.40;;;;;;;;;;12635034;23;20032;-69
2023/10/21 23:56:28;;;;;;;12.32;11.40;;;;;;;;;;12635838;23;20028;-67
